EGPU

Tiree Airport

Balemartine, United Kingdom
METAR EGPU 180620Z AUTO 16013KT 9999 FEW049/// 06/05 Q1015
Observed Flight Rules
Feb-18 @ 06:20 UTC (52 minutes ago) Visual Flight Rules
Wind Visibility Clouds
160° at 13 knots 10,000+ meters
  • Few at 4,900' AGL
Temperatures Readings
Current 6°C / 43°F
Dewpoint 5°C / 41°F
Humidity 93%
Altimeter 29.97" Hg
Pressure 1015 hPa
Elevation 12
METAR EGPU 180620Z AUTO 16013KT 9999 FEW049/// 06/05 Q1015
Observed Flight Rules
Feb-18 @ 06:20 UTC
(52 minutes ago)
VFR
Wind Visibility
160° at 13 knots 10,000+ meters
Clouds
  • Few at 4,900' AGL
Temperature Dewpoint
6°C / 43°F 5°C / 41°F
Humidity Altimeter Pressure
93% 29.97" Hg 1015 hPa